sensor_id;sensor_type;location;lat;lon;timestamp;temperature;humidity
14511;DHT22;7341;50.930;4.038;2023-02-21T00:02:19;8.20;99.90
14511;DHT22;7341;50.930;4.038;2023-02-21T00:05:05;8.20;99.90
14511;DHT22;7341;50.930;4.038;2023-02-21T00:07:49;8.10;99.90
14511;DHT22;7341;50.930;4.038;2023-02-21T00:10:35;8.10;99.90
14511;DHT22;7341;50.930;4.038;2023-02-21T00:13:19;8.20;99.90
14511;DHT22;7341;50.930;4.038;2023-02-21T00:16:04;8.20;99.90
14511;DHT22;7341;50.930;4.038;2023-02-21T00:18:49;8.20;99.90
14511;DHT22;7341;50.930;4.038;2023-02-21T00:21:35;8.20;99.90
14511;DHT22;7341;50.930;4.038;2023-02-21T00:24:19;8.20;99.90
14511;DHT22;7341;50.930;4.038;2023-02-21T00:27:04;8.30;99.90
14511;DHT22;7341;50.930;4.038;2023-02-21T00:29:52;8.30;99.90
14511;DHT22;7341;50.930;4.038;2023-02-21T00:32:36;8.20;99.90
14511;DHT22;7341;50.930;4.038;2023-02-21T00:35:20;8.10;99.90
14511;DHT22;7341;50.930;4.038;2023-02-21T00:38:07;8.10;99.90
14511;DHT22;7341;50.930;4.038;2023-02-21T00:40:52;8.10;99.90
14511;DHT22;7341;50.930;4.038;2023-02-21T00:43:39;8.00;99.90
14511;DHT22;7341;50.930;4.038;2023-02-21T00:46:23;7.90;99.90
14511;DHT22;7341;50.930;4.038;2023-02-21T00:49:08;7.80;99.90
14511;DHT22;7341;50.930;4.038;2023-02-21T00:51:53;7.90;99.90
14511;DHT22;7341;50.930;4.038;2023-02-21T00:54:40;7.90;99.90
14511;DHT22;7341;50.930;4.038;2023-02-21T00:57:25;8.00;99.90
14511;DHT22;7341;50.930;4.038;2023-02-21T01:00:15;8.00;99.90
14511;DHT22;7341;50.930;4.038;2023-02-21T01:02:59;8.00;99.90
14511;DHT22;7341;50.930;4.038;2023-02-21T01:05:44;8.00;99.90
14511;DHT22;7341;50.930;4.038;2023-02-21T01:08:28;8.10;99.90
14511;DHT22;7341;50.930;4.038;2023-02-21T01:11:15;8.00;99.90
14511;DHT22;7341;50.930;4.038;2023-02-21T01:14:00;8.00;99.90
14511;DHT22;7341;50.930;4.038;2023-02-21T01:16:45;8.00;99.90
14511;DHT22;7341;50.930;4.038;2023-02-21T01:19:30;8.00;99.90
14511;DHT22;7341;50.930;4.038;2023-02-21T01:22:16;7.90;99.90
14511;DHT22;7341;50.930;4.038;2023-02-21T01:25:00;8.00;99.90
14511;DHT22;7341;50.930;4.038;2023-02-21T01:27:46;7.90;99.90
14511;DHT22;7341;50.930;4.038;2023-02-21T01:30:31;7.90;99.90
14511;DHT22;7341;50.930;4.038;2023-02-21T01:33:15;7.90;99.90
14511;DHT22;7341;50.930;4.038;2023-02-21T01:35:59;7.90;99.90
14511;DHT22;7341;50.930;4.038;2023-02-21T01:38:44;8.10;99.90
14511;DHT22;7341;50.930;4.038;2023-02-21T01:41:28;8.30;99.90
14511;DHT22;7341;50.930;4.038;2023-02-21T01:44:33;8.20;99.90
14511;DHT22;7341;50.930;4.038;2023-02-21T01:47:17;8.20;99.90
14511;DHT22;7341;50.930;4.038;2023-02-21T01:50:18;8.30;99.90
14511;DHT22;7341;50.930;4.038;2023-02-21T01:53:04;8.20;99.90
14511;DHT22;7341;50.930;4.038;2023-02-21T01:55:53;8.20;99.90
14511;DHT22;7341;50.930;4.038;2023-02-21T01:58:39;8.10;99.90
14511;DHT22;7341;50.930;4.038;2023-02-21T02:01:35;8.00;99.90
14511;DHT22;7341;50.930;4.038;2023-02-21T02:04:21;7.90;99.90
14511;DHT22;7341;50.930;4.038;2023-02-21T02:07:07;7.90;99.90
14511;DHT22;7341;50.930;4.038;2023-02-21T02:09:53;7.90;99.90
14511;DHT22;7341;50.930;4.038;2023-02-21T02:12:52;7.90;99.90
14511;DHT22;7341;50.930;4.038;2023-02-21T02:15:32;8.10;99.90
14511;DHT22;7341;50.930;4.038;2023-02-21T02:18:14;8.10;99.90
14511;DHT22;7341;50.930;4.038;2023-02-21T02:23:54;8.10;99.90
14511;DHT22;7341;50.930;4.038;2023-02-21T02:29:47;8.10;99.90
14511;DHT22;7341;50.930;4.038;2023-02-21T02:35:28;7.90;99.90
14511;DHT22;7341;50.930;4.038;2023-02-21T02:38:00;7.90;99.90
14511;DHT22;7341;50.930;4.038;2023-02-21T02:40:32;7.80;99.90
14511;DHT22;7341;50.930;4.038;2023-02-21T02:43:08;7.80;99.90
14511;DHT22;7341;50.930;4.038;2023-02-21T02:45:42;7.80;99.90
14511;DHT22;7341;50.930;4.038;2023-02-21T02:48:21;7.80;99.90
14511;DHT22;7341;50.930;4.038;2023-02-21T02:50:55;7.80;99.90
14511;DHT22;7341;50.930;4.038;2023-02-21T02:53:26;7.70;99.90
14511;DHT22;7341;50.930;4.038;2023-02-21T02:55:56;7.60;99.90
14511;DHT22;7341;50.930;4.038;2023-02-21T02:58:25;7.60;99.90
14511;DHT22;7341;50.930;4.038;2023-02-21T03:01:13;7.60;99.90
14511;DHT22;7341;50.930;4.038;2023-02-21T03:06:41;7.60;99.90
14511;DHT22;7341;50.930;4.038;2023-02-21T03:09:14;7.70;99.90
14511;DHT22;7341;50.930;4.038;2023-02-21T03:11:49;7.70;99.90
14511;DHT22;7341;50.930;4.038;2023-02-21T03:14:19;7.70;99.90
14511;DHT22;7341;50.930;4.038;2023-02-21T03:16:51;7.80;99.90
14511;DHT22;7341;50.930;4.038;2023-02-21T03:19:24;7.90;99.90
14511;DHT22;7341;50.930;4.038;2023-02-21T03:21:57;7.80;99.90
14511;DHT22;7341;50.930;4.038;2023-02-21T03:24:25;7.70;99.90
14511;DHT22;7341;50.930;4.038;2023-02-21T03:26:56;7.70;99.90
14511;DHT22;7341;50.930;4.038;2023-02-21T03:29:26;7.70;99.90
14511;DHT22;7341;50.930;4.038;2023-02-21T03:31:55;7.70;99.90
14511;DHT22;7341;50.930;4.038;2023-02-21T03:34:27;7.60;99.90
14511;DHT22;7341;50.930;4.038;2023-02-21T03:36:55;7.70;99.90
14511;DHT22;7341;50.930;4.038;2023-02-21T03:39:22;7.70;99.90
14511;DHT22;7341;50.930;4.038;2023-02-21T03:41:49;7.80;99.90
14511;DHT22;7341;50.930;4.038;2023-02-21T03:44:16;7.70;99.90
14511;DHT22;7341;50.930;4.038;2023-02-21T03:46:42;7.80;99.90
14511;DHT22;7341;50.930;4.038;2023-02-21T03:49:10;7.90;99.90
14511;DHT22;7341;50.930;4.038;2023-02-21T03:51:37;7.90;99.90
14511;DHT22;7341;50.930;4.038;2023-02-21T03:54:07;8.00;99.90
14511;DHT22;7341;50.930;4.038;2023-02-21T03:56:34;8.10;99.90
14511;DHT22;7341;50.930;4.038;2023-02-21T03:59:01;8.00;99.90
14511;DHT22;7341;50.930;4.038;2023-02-21T04:01:28;8.00;99.90
14511;DHT22;7341;50.930;4.038;2023-02-21T04:03:55;8.10;99.90
14511;DHT22;7341;50.930;4.038;2023-02-21T04:06:22;8.10;99.90
14511;DHT22;7341;50.930;4.038;2023-02-21T04:08:51;8.10;99.90
14511;DHT22;7341;50.930;4.038;2023-02-21T04:11:19;8.10;99.90
14511;DHT22;7341;50.930;4.038;2023-02-21T04:13:47;8.00;99.90
14511;DHT22;7341;50.930;4.038;2023-02-21T04:16:14;8.00;99.90
14511;DHT22;7341;50.930;4.038;2023-02-21T04:18:42;8.10;99.90
14511;DHT22;7341;50.930;4.038;2023-02-21T04:21:10;8.10;99.90
14511;DHT22;7341;50.930;4.038;2023-02-21T04:23:42;8.00;99.90
14511;DHT22;7341;50.930;4.038;2023-02-21T04:26:10;7.90;99.90
14511;DHT22;7341;50.930;4.038;2023-02-21T04:28:38;8.00;99.90
14511;DHT22;7341;50.930;4.038;2023-02-21T04:31:06;8.00;99.90
14511;DHT22;7341;50.930;4.038;2023-02-21T04:33:32;8.00;99.90
14511;DHT22;7341;50.930;4.038;2023-02-21T04:35:59;8.00;99.90
14511;DHT22;7341;50.930;4.038;2023-02-21T04:38:27;8.10;99.90
14511;DHT22;7341;50.930;4.038;2023-02-21T04:40:54;8.10;99.90
14511;DHT22;7341;50.930;4.038;2023-02-21T04:43:21;8.10;99.90
14511;DHT22;7341;50.930;4.038;2023-02-21T04:45:49;8.00;99.90
14511;DHT22;7341;50.930;4.038;2023-02-21T04:48:16;8.00;99.90
14511;DHT22;7341;50.930;4.038;2023-02-21T04:50:43;7.90;99.90
14511;DHT22;7341;50.930;4.038;2023-02-21T04:53:10;8.00;99.90
14511;DHT22;7341;50.930;4.038;2023-02-21T04:55:38;7.90;99.90
14511;DHT22;7341;50.930;4.038;2023-02-21T04:58:05;7.80;99.90
14511;DHT22;7341;50.930;4.038;2023-02-21T05:00:32;7.90;99.90
14511;DHT22;7341;50.930;4.038;2023-02-21T05:03:01;7.90;99.90
14511;DHT22;7341;50.930;4.038;2023-02-21T05:05:28;7.90;99.90
14511;DHT22;7341;50.930;4.038;2023-02-21T05:07:55;8.00;99.90
14511;DHT22;7341;50.930;4.038;2023-02-21T05:10:23;8.00;99.90
14511;DHT22;7341;50.930;4.038;2023-02-21T05:12:52;8.00;99.90
14511;DHT22;7341;50.930;4.038;2023-02-21T05:15:19;8.00;99.90
14511;DHT22;7341;50.930;4.038;2023-02-21T05:17:46;7.90;99.90
14511;DHT22;7341;50.930;4.038;2023-02-21T05:20:15;8.00;99.90
14511;DHT22;7341;50.930;4.038;2023-02-21T05:22:43;8.00;99.90
14511;DHT22;7341;50.930;4.038;2023-02-21T05:25:14;8.00;99.90
14511;DHT22;7341;50.930;4.038;2023-02-21T05:27:42;8.00;99.90
14511;DHT22;7341;50.930;4.038;2023-02-21T05:30:11;8.00;99.90
14511;DHT22;7341;50.930;4.038;2023-02-21T05:32:38;8.00;99.90
14511;DHT22;7341;50.930;4.038;2023-02-21T05:35:05;7.70;99.90
14511;DHT22;7341;50.930;4.038;2023-02-21T05:37:36;7.80;99.90
14511;DHT22;7341;50.930;4.038;2023-02-21T05:40:04;7.80;99.90
14511;DHT22;7341;50.930;4.038;2023-02-21T05:42:32;7.80;99.90
14511;DHT22;7341;50.930;4.038;2023-02-21T05:44:58;7.70;99.90
14511;DHT22;7341;50.930;4.038;2023-02-21T05:47:26;7.60;99.90
14511;DHT22;7341;50.930;4.038;2023-02-21T05:49:53;7.60;99.90
14511;DHT22;7341;50.930;4.038;2023-02-21T05:52:20;7.80;99.90
14511;DHT22;7341;50.930;4.038;2023-02-21T05:54:49;7.80;99.90
14511;DHT22;7341;50.930;4.038;2023-02-21T05:57:16;7.90;99.90
14511;DHT22;7341;50.930;4.038;2023-02-21T05:59:42;7.70;99.90
14511;DHT22;7341;50.930;4.038;2023-02-21T06:02:12;7.90;99.90
14511;DHT22;7341;50.930;4.038;2023-02-21T06:04:40;7.80;99.90
14511;DHT22;7341;50.930;4.038;2023-02-21T06:07:08;7.80;99.90
14511;DHT22;7341;50.930;4.038;2023-02-21T06:09:35;7.80;99.90
14511;DHT22;7341;50.930;4.038;2023-02-21T06:12:05;7.70;99.90
14511;DHT22;7341;50.930;4.038;2023-02-21T06:14:32;7.70;99.90
14511;DHT22;7341;50.930;4.038;2023-02-21T06:17:00;7.70;99.90
14511;DHT22;7341;50.930;4.038;2023-02-21T06:19:27;7.70;99.90
14511;DHT22;7341;50.930;4.038;2023-02-21T06:21:54;7.70;99.90
14511;DHT22;7341;50.930;4.038;2023-02-21T06:24:22;7.80;99.90
14511;DHT22;7341;50.930;4.038;2023-02-21T06:26:51;7.80;99.90
14511;DHT22;7341;50.930;4.038;2023-02-21T06:29:22;7.80;99.90
14511;DHT22;7341;50.930;4.038;2023-02-21T06:31:55;7.80;99.90
14511;DHT22;7341;50.930;4.038;2023-02-21T06:34:24;7.80;99.90
14511;DHT22;7341;50.930;4.038;2023-02-21T06:36:53;7.70;99.90
14511;DHT22;7341;50.930;4.038;2023-02-21T06:39:20;7.70;99.90
14511;DHT22;7341;50.930;4.038;2023-02-21T06:41:49;7.70;99.90
14511;DHT22;7341;50.930;4.038;2023-02-21T06:44:16;7.70;99.90
14511;DHT22;7341;50.930;4.038;2023-02-21T06:46:47;7.80;99.90
14511;DHT22;7341;50.930;4.038;2023-02-21T06:49:16;7.70;99.90
14511;DHT22;7341;50.930;4.038;2023-02-21T06:51:45;7.70;99.90
14511;DHT22;7341;50.930;4.038;2023-02-21T06:54:12;7.80;99.90
14511;DHT22;7341;50.930;4.038;2023-02-21T06:56:41;7.60;99.90
14511;DHT22;7341;50.930;4.038;2023-02-21T06:59:09;7.50;99.90
14511;DHT22;7341;50.930;4.038;2023-02-21T07:01:36;7.60;99.90
14511;DHT22;7341;50.930;4.038;2023-02-21T07:04:05;7.80;99.90
14511;DHT22;7341;50.930;4.038;2023-02-21T07:06:33;7.80;99.90
14511;DHT22;7341;50.930;4.038;2023-02-21T07:09:00;7.80;99.90
14511;DHT22;7341;50.930;4.038;2023-02-21T07:11:30;7.80;99.90
14511;DHT22;7341;50.930;4.038;2023-02-21T07:13:57;7.80;99.90
14511;DHT22;7341;50.930;4.038;2023-02-21T07:16:25;7.70;99.90
14511;DHT22;7341;50.930;4.038;2023-02-21T07:18:54;7.80;99.90
14511;DHT22;7341;50.930;4.038;2023-02-21T07:21:22;7.70;99.90
14511;DHT22;7341;50.930;4.038;2023-02-21T07:23:50;7.80;99.90
14511;DHT22;7341;50.930;4.038;2023-02-21T07:26:17;7.70;99.90
14511;DHT22;7341;50.930;4.038;2023-02-21T07:28:46;7.70;99.90
14511;DHT22;7341;50.930;4.038;2023-02-21T07:31:13;7.60;99.90
14511;DHT22;7341;50.930;4.038;2023-02-21T07:33:41;7.60;99.90
14511;DHT22;7341;50.930;4.038;2023-02-21T07:36:08;7.50;99.90
14511;DHT22;7341;50.930;4.038;2023-02-21T07:38:36;7.40;99.90
14511;DHT22;7341;50.930;4.038;2023-02-21T07:41:04;7.30;99.90
14511;DHT22;7341;50.930;4.038;2023-02-21T07:43:31;7.30;99.90
14511;DHT22;7341;50.930;4.038;2023-02-21T07:45:58;7.40;99.90
14511;DHT22;7341;50.930;4.038;2023-02-21T07:48:24;7.40;99.90
14511;DHT22;7341;50.930;4.038;2023-02-21T07:50:51;7.60;99.90
14511;DHT22;7341;50.930;4.038;2023-02-21T07:53:19;7.60;99.90
14511;DHT22;7341;50.930;4.038;2023-02-21T07:55:47;7.70;99.90
14511;DHT22;7341;50.930;4.038;2023-02-21T07:58:14;7.60;99.90
14511;DHT22;7341;50.930;4.038;2023-02-21T08:00:41;7.60;99.90
14511;DHT22;7341;50.930;4.038;2023-02-21T08:03:10;7.70;99.90
14511;DHT22;7341;50.930;4.038;2023-02-21T08:05:38;7.70;99.90
14511;DHT22;7341;50.930;4.038;2023-02-21T08:08:06;7.80;99.90
14511;DHT22;7341;50.930;4.038;2023-02-21T08:10:33;7.80;99.90
14511;DHT22;7341;50.930;4.038;2023-02-21T08:13:01;7.70;99.90
14511;DHT22;7341;50.930;4.038;2023-02-21T08:15:28;7.90;99.90
14511;DHT22;7341;50.930;4.038;2023-02-21T08:17:56;7.90;99.90
14511;DHT22;7341;50.930;4.038;2023-02-21T08:20:23;8.00;99.90
14511;DHT22;7341;50.930;4.038;2023-02-21T08:22:50;8.00;99.90
14511;DHT22;7341;50.930;4.038;2023-02-21T08:25:16;7.90;99.90
14511;DHT22;7341;50.930;4.038;2023-02-21T08:27:44;7.80;99.90
14511;DHT22;7341;50.930;4.038;2023-02-21T08:30:15;7.80;99.90
14511;DHT22;7341;50.930;4.038;2023-02-21T08:32:44;7.90;99.90
14511;DHT22;7341;50.930;4.038;2023-02-21T08:35:13;7.90;99.90
14511;DHT22;7341;50.930;4.038;2023-02-21T08:37:43;7.80;99.90
14511;DHT22;7341;50.930;4.038;2023-02-21T08:40:11;7.80;99.90
14511;DHT22;7341;50.930;4.038;2023-02-21T08:42:38;7.70;99.90
14511;DHT22;7341;50.930;4.038;2023-02-21T08:45:07;7.70;99.90
14511;DHT22;7341;50.930;4.038;2023-02-21T08:47:36;7.60;99.90
14511;DHT22;7341;50.930;4.038;2023-02-21T08:50:04;7.60;99.90
14511;DHT22;7341;50.930;4.038;2023-02-21T08:52:30;7.60;99.90
14511;DHT22;7341;50.930;4.038;2023-02-21T08:54:57;7.70;99.90
14511;DHT22;7341;50.930;4.038;2023-02-21T08:57:24;7.80;99.90
14511;DHT22;7341;50.930;4.038;2023-02-21T08:59:51;7.80;99.90
14511;DHT22;7341;50.930;4.038;2023-02-21T09:02:20;7.90;99.90
14511;DHT22;7341;50.930;4.038;2023-02-21T09:04:49;7.90;99.90
14511;DHT22;7341;50.930;4.038;2023-02-21T09:07:18;7.70;99.90
14511;DHT22;7341;50.930;4.038;2023-02-21T09:09:45;7.70;99.90
14511;DHT22;7341;50.930;4.038;2023-02-21T09:12:12;7.60;99.90
14511;DHT22;7341;50.930;4.038;2023-02-21T09:14:41;7.70;99.90
14511;DHT22;7341;50.930;4.038;2023-02-21T09:17:10;7.70;99.90
14511;DHT22;7341;50.930;4.038;2023-02-21T09:19:37;7.60;99.90
14511;DHT22;7341;50.930;4.038;2023-02-21T09:22:07;7.70;99.90
14511;DHT22;7341;50.930;4.038;2023-02-21T09:24:35;7.80;99.90
14511;DHT22;7341;50.930;4.038;2023-02-21T09:27:02;7.80;99.90
14511;DHT22;7341;50.930;4.038;2023-02-21T09:29:30;7.80;99.90
14511;DHT22;7341;50.930;4.038;2023-02-21T09:31:58;7.90;99.90
14511;DHT22;7341;50.930;4.038;2023-02-21T09:34:28;7.90;99.90
14511;DHT22;7341;50.930;4.038;2023-02-21T09:36:55;7.90;99.90
14511;DHT22;7341;50.930;4.038;2023-02-21T09:39:26;7.90;99.90
14511;DHT22;7341;50.930;4.038;2023-02-21T09:41:53;7.90;99.90
14511;DHT22;7341;50.930;4.038;2023-02-21T09:44:24;7.90;99.90
14511;DHT22;7341;50.930;4.038;2023-02-21T09:46:54;7.90;99.90
14511;DHT22;7341;50.930;4.038;2023-02-21T09:49:25;7.90;99.90
14511;DHT22;7341;50.930;4.038;2023-02-21T09:51:54;8.00;99.90
14511;DHT22;7341;50.930;4.038;2023-02-21T09:54:27;7.90;99.90
14511;DHT22;7341;50.930;4.038;2023-02-21T09:56:59;8.00;99.90
14511;DHT22;7341;50.930;4.038;2023-02-21T09:59:33;8.00;99.90
14511;DHT22;7341;50.930;4.038;2023-02-21T10:02:08;8.20;99.90
14511;DHT22;7341;50.930;4.038;2023-02-21T10:04:54;8.10;99.90
14511;DHT22;7341;50.930;4.038;2023-02-21T10:07:29;8.20;99.90
14511;DHT22;7341;50.930;4.038;2023-02-21T10:10:05;8.20;99.90
14511;DHT22;7341;50.930;4.038;2023-02-21T10:12:36;8.30;99.90
14511;DHT22;7341;50.930;4.038;2023-02-21T10:15:19;8.40;99.90
14511;DHT22;7341;50.930;4.038;2023-02-21T10:17:53;8.20;99.90
14511;DHT22;7341;50.930;4.038;2023-02-21T10:20:27;8.40;99.90
14511;DHT22;7341;50.930;4.038;2023-02-21T10:22:56;8.30;99.90
14511;DHT22;7341;50.930;4.038;2023-02-21T10:25:26;8.30;99.90
14511;DHT22;7341;50.930;4.038;2023-02-21T10:27:56;8.40;99.90
14511;DHT22;7341;50.930;4.038;2023-02-21T10:30:28;8.30;99.90
14511;DHT22;7341;50.930;4.038;2023-02-21T10:32:55;8.20;99.90
14511;DHT22;7341;50.930;4.038;2023-02-21T10:35:22;8.20;99.90
14511;DHT22;7341;50.930;4.038;2023-02-21T10:37:52;8.20;99.90
14511;DHT22;7341;50.930;4.038;2023-02-21T10:40:28;8.40;99.90
14511;DHT22;7341;50.930;4.038;2023-02-21T10:43:01;8.50;99.90
14511;DHT22;7341;50.930;4.038;2023-02-21T10:45:34;8.50;99.90
14511;DHT22;7341;50.930;4.038;2023-02-21T10:48:03;8.50;99.90
14511;DHT22;7341;50.930;4.038;2023-02-21T10:50:49;8.50;99.90
14511;DHT22;7341;50.930;4.038;2023-02-21T10:53:26;8.50;99.90
14511;DHT22;7341;50.930;4.038;2023-02-21T10:56:13;8.60;99.90
14511;DHT22;7341;50.930;4.038;2023-02-21T10:58:45;8.50;99.90
14511;DHT22;7341;50.930;4.038;2023-02-21T11:01:14;8.40;99.90
14511;DHT22;7341;50.930;4.038;2023-02-21T11:03:45;8.50;99.90
14511;DHT22;7341;50.930;4.038;2023-02-21T11:06:25;8.70;99.90
14511;DHT22;7341;50.930;4.038;2023-02-21T11:08:53;8.70;99.90
14511;DHT22;7341;50.930;4.038;2023-02-21T11:11:36;8.60;99.90
14511;DHT22;7341;50.930;4.038;2023-02-21T11:14:18;8.60;99.90
14511;DHT22;7341;50.930;4.038;2023-02-21T11:17:13;8.70;99.90
14511;DHT22;7341;50.930;4.038;2023-02-21T11:19:43;8.50;99.90
14511;DHT22;7341;50.930;4.038;2023-02-21T11:22:11;8.70;99.90
14511;DHT22;7341;50.930;4.038;2023-02-21T11:24:56;8.80;99.90
14511;DHT22;7341;50.930;4.038;2023-02-21T11:27:28;8.80;99.90
14511;DHT22;7341;50.930;4.038;2023-02-21T11:29:56;8.80;99.90
14511;DHT22;7341;50.930;4.038;2023-02-21T11:32:28;8.90;99.90
14511;DHT22;7341;50.930;4.038;2023-02-21T11:35:06;9.00;99.90
14511;DHT22;7341;50.930;4.038;2023-02-21T11:37:48;9.10;99.90
14511;DHT22;7341;50.930;4.038;2023-02-21T11:40:28;9.30;99.90
14511;DHT22;7341;50.930;4.038;2023-02-21T11:43:23;9.30;99.90
14511;DHT22;7341;50.930;4.038;2023-02-21T11:46:14;9.40;99.90
14511;DHT22;7341;50.930;4.038;2023-02-21T11:48:58;9.10;99.90
14511;DHT22;7341;50.930;4.038;2023-02-21T11:51:35;9.10;99.90
14511;DHT22;7341;50.930;4.038;2023-02-21T11:54:04;9.10;99.90
14511;DHT22;7341;50.930;4.038;2023-02-21T11:56:38;8.90;99.90
14511;DHT22;7341;50.930;4.038;2023-02-21T11:59:20;9.00;99.90
14511;DHT22;7341;50.930;4.038;2023-02-21T12:01:59;8.90;99.90
14511;DHT22;7341;50.930;4.038;2023-02-21T12:04:43;9.10;99.90
14511;DHT22;7341;50.930;4.038;2023-02-21T12:07:15;9.20;99.90
14511;DHT22;7341;50.930;4.038;2023-02-21T12:09:48;8.90;99.90
14511;DHT22;7341;50.930;4.038;2023-02-21T12:12:31;8.90;99.90
14511;DHT22;7341;50.930;4.038;2023-02-21T12:15:10;8.80;99.90
14511;DHT22;7341;50.930;4.038;2023-02-21T12:18:00;8.80;99.90
14511;DHT22;7341;50.930;4.038;2023-02-21T12:20:45;8.80;99.90
14511;DHT22;7341;50.930;4.038;2023-02-21T12:23:21;8.90;99.90
14511;DHT22;7341;50.930;4.038;2023-02-21T12:26:11;9.00;99.90
14511;DHT22;7341;50.930;4.038;2023-02-21T12:28:59;9.20;99.90
14511;DHT22;7341;50.930;4.038;2023-02-21T12:34:41;9.30;99.90
14511;DHT22;7341;50.930;4.038;2023-02-21T12:37:20;9.40;99.90
14511;DHT22;7341;50.930;4.038;2023-02-21T12:39:55;9.30;99.90
14511;DHT22;7341;50.930;4.038;2023-02-21T12:42:38;9.20;99.90
14511;DHT22;7341;50.930;4.038;2023-02-21T12:45:22;9.20;99.90
14511;DHT22;7341;50.930;4.038;2023-02-21T12:48:03;9.50;99.90
14511;DHT22;7341;50.930;4.038;2023-02-21T12:50:39;9.40;99.90
14511;DHT22;7341;50.930;4.038;2023-02-21T12:53:12;9.60;99.90
14511;DHT22;7341;50.930;4.038;2023-02-21T12:55:44;9.60;99.90
14511;DHT22;7341;50.930;4.038;2023-02-21T12:58:18;9.60;99.90
14511;DHT22;7341;50.930;4.038;2023-02-21T13:00:50;9.70;99.90
14511;DHT22;7341;50.930;4.038;2023-02-21T13:03:30;9.60;99.90
14511;DHT22;7341;50.930;4.038;2023-02-21T13:06:04;9.60;99.90
14511;DHT22;7341;50.930;4.038;2023-02-21T13:08:43;9.60;99.90
14511;DHT22;7341;50.930;4.038;2023-02-21T13:11:16;9.30;99.90
14511;DHT22;7341;50.930;4.038;2023-02-21T13:13:45;9.20;99.90
14511;DHT22;7341;50.930;4.038;2023-02-21T13:16:13;9.40;99.90
14511;DHT22;7341;50.930;4.038;2023-02-21T13:18:46;9.40;99.90
14511;DHT22;7341;50.930;4.038;2023-02-21T13:21:25;9.60;99.90
14511;DHT22;7341;50.930;4.038;2023-02-21T13:24:38;9.60;99.90
14511;DHT22;7341;50.930;4.038;2023-02-21T13:27:40;9.80;99.90
14511;DHT22;7341;50.930;4.038;2023-02-21T13:30:14;10.00;99.90
14511;DHT22;7341;50.930;4.038;2023-02-21T13:32:50;10.10;99.90
14511;DHT22;7341;50.930;4.038;2023-02-21T13:35:31;10.10;99.90
14511;DHT22;7341;50.930;4.038;2023-02-21T13:38:00;9.90;99.90
14511;DHT22;7341;50.930;4.038;2023-02-21T13:40:35;9.80;99.90
14511;DHT22;7341;50.930;4.038;2023-02-21T13:43:10;9.60;99.90
14511;DHT22;7341;50.930;4.038;2023-02-21T13:45:38;9.40;99.90
14511;DHT22;7341;50.930;4.038;2023-02-21T13:48:20;9.50;99.90
14511;DHT22;7341;50.930;4.038;2023-02-21T13:50:49;9.60;99.90
14511;DHT22;7341;50.930;4.038;2023-02-21T13:53:19;9.70;99.90
14511;DHT22;7341;50.930;4.038;2023-02-21T13:56:15;9.80;99.90
14511;DHT22;7341;50.930;4.038;2023-02-21T13:58:43;9.90;99.90
14511;DHT22;7341;50.930;4.038;2023-02-21T14:01:39;9.90;99.90
14511;DHT22;7341;50.930;4.038;2023-02-21T14:07:06;10.30;99.90
14511;DHT22;7341;50.930;4.038;2023-02-21T14:09:38;10.50;99.90
14511;DHT22;7341;50.930;4.038;2023-02-21T14:12:06;10.70;99.90
14511;DHT22;7341;50.930;4.038;2023-02-21T14:14:35;10.40;99.90
14511;DHT22;7341;50.930;4.038;2023-02-21T14:17:07;10.20;99.90
14511;DHT22;7341;50.930;4.038;2023-02-21T14:19:36;10.40;99.90
14511;DHT22;7341;50.930;4.038;2023-02-21T14:22:12;10.30;99.90
14511;DHT22;7341;50.930;4.038;2023-02-21T14:24:43;10.00;99.90
14511;DHT22;7341;50.930;4.038;2023-02-21T14:27:30;10.00;99.90
14511;DHT22;7341;50.930;4.038;2023-02-21T14:30:31;9.90;99.90
14511;DHT22;7341;50.930;4.038;2023-02-21T14:33:08;9.70;99.90
14511;DHT22;7341;50.930;4.038;2023-02-21T14:35:44;9.70;99.90
14511;DHT22;7341;50.930;4.038;2023-02-21T14:38:16;9.80;99.90
14511;DHT22;7341;50.930;4.038;2023-02-21T14:40:57;9.90;99.90
14511;DHT22;7341;50.930;4.038;2023-02-21T14:43:46;10.00;99.90
14511;DHT22;7341;50.930;4.038;2023-02-21T14:46:45;10.10;99.90
14511;DHT22;7341;50.930;4.038;2023-02-21T14:49:46;10.00;99.90
14511;DHT22;7341;50.930;4.038;2023-02-21T14:52:45;10.20;99.90
14511;DHT22;7341;50.930;4.038;2023-02-21T14:58:28;10.00;99.90
14511;DHT22;7341;50.930;4.038;2023-02-21T15:01:06;10.20;99.90
14511;DHT22;7341;50.930;4.038;2023-02-21T15:03:42;10.40;99.90
14511;DHT22;7341;50.930;4.038;2023-02-21T15:06:11;10.10;99.90
14511;DHT22;7341;50.930;4.038;2023-02-21T15:08:44;10.00;99.90
14511;DHT22;7341;50.930;4.038;2023-02-21T15:11:20;9.80;99.90
14511;DHT22;7341;50.930;4.038;2023-02-21T15:14:14;9.80;99.90
14511;DHT22;7341;50.930;4.038;2023-02-21T15:16:48;9.90;99.90
14511;DHT22;7341;50.930;4.038;2023-02-21T15:19:23;10.00;99.90
14511;DHT22;7341;50.930;4.038;2023-02-21T15:22:14;10.10;99.90
14511;DHT22;7341;50.930;4.038;2023-02-21T15:24:50;10.20;99.90
14511;DHT22;7341;50.930;4.038;2023-02-21T15:27:21;10.00;99.90
14511;DHT22;7341;50.930;4.038;2023-02-21T15:30:03;9.70;99.90
14511;DHT22;7341;50.930;4.038;2023-02-21T15:32:34;9.90;99.90
14511;DHT22;7341;50.930;4.038;2023-02-21T15:35:05;9.80;99.90
14511;DHT22;7341;50.930;4.038;2023-02-21T15:37:38;9.90;99.90
14511;DHT22;7341;50.930;4.038;2023-02-21T15:40:14;9.80;99.90
14511;DHT22;7341;50.930;4.038;2023-02-21T15:42:43;9.80;99.90
14511;DHT22;7341;50.930;4.038;2023-02-21T15:45:21;9.90;99.90
14511;DHT22;7341;50.930;4.038;2023-02-21T15:47:50;10.00;99.90
14511;DHT22;7341;50.930;4.038;2023-02-21T15:50:27;9.90;99.90
14511;DHT22;7341;50.930;4.038;2023-02-21T15:53:10;9.90;99.90
14511;DHT22;7341;50.930;4.038;2023-02-21T15:55:37;10.00;99.90
14511;DHT22;7341;50.930;4.038;2023-02-21T15:58:17;10.10;99.90
14511;DHT22;7341;50.930;4.038;2023-02-21T16:00:48;10.10;99.90
14511;DHT22;7341;50.930;4.038;2023-02-21T16:03:33;10.00;99.90
14511;DHT22;7341;50.930;4.038;2023-02-21T16:06:27;9.80;99.90
14511;DHT22;7341;50.930;4.038;2023-02-21T16:08:59;9.80;99.90
14511;DHT22;7341;50.930;4.038;2023-02-21T16:11:43;9.60;99.90
14511;DHT22;7341;50.930;4.038;2023-02-21T16:14:16;9.60;99.90
14511;DHT22;7341;50.930;4.038;2023-02-21T16:16:46;9.60;99.90
14511;DHT22;7341;50.930;4.038;2023-02-21T16:19:19;9.70;99.90
14511;DHT22;7341;50.930;4.038;2023-02-21T16:21:46;9.70;99.90
14511;DHT22;7341;50.930;4.038;2023-02-21T16:24:28;9.60;99.90
14511;DHT22;7341;50.930;4.038;2023-02-21T16:27:03;9.40;99.90
14511;DHT22;7341;50.930;4.038;2023-02-21T16:29:31;9.30;99.90
14511;DHT22;7341;50.930;4.038;2023-02-21T16:32:00;9.30;99.90
14511;DHT22;7341;50.930;4.038;2023-02-21T16:34:30;9.20;99.90
14511;DHT22;7341;50.930;4.038;2023-02-21T16:37:04;9.10;99.90
14511;DHT22;7341;50.930;4.038;2023-02-21T16:39:37;9.00;99.90
14511;DHT22;7341;50.930;4.038;2023-02-21T16:42:11;9.10;99.90
14511;DHT22;7341;50.930;4.038;2023-02-21T16:44:38;9.10;99.90
14511;DHT22;7341;50.930;4.038;2023-02-21T16:47:12;9.10;99.90
14511;DHT22;7341;50.930;4.038;2023-02-21T16:49:45;9.10;99.90
14511;DHT22;7341;50.930;4.038;2023-02-21T16:52:18;9.10;99.90
14511;DHT22;7341;50.930;4.038;2023-02-21T16:54:45;9.10;99.90
14511;DHT22;7341;50.930;4.038;2023-02-21T16:57:13;9.20;99.90
14511;DHT22;7341;50.930;4.038;2023-02-21T16:59:43;9.30;99.90
14511;DHT22;7341;50.930;4.038;2023-02-21T17:02:13;9.30;99.90
14511;DHT22;7341;50.930;4.038;2023-02-21T17:04:40;9.40;99.90
14511;DHT22;7341;50.930;4.038;2023-02-21T17:07:10;9.60;99.90